sensor_id;sensor_type;location;lat;lon;timestamp;P1;durP1;ratioP1;P2;durP2;ratioP2
71814;SDS011;59659;41.520;23.794;2024-01-16T00:00:35;50.63;;;24.38;;
71814;SDS011;59659;41.520;23.794;2024-01-16T00:01:47;49.97;;;24.20;;
71814;SDS011;59659;41.520;23.794;2024-01-16T00:02:58;43.08;;;21.60;;
71814;SDS011;59659;41.520;23.794;2024-01-16T00:04:10;48.17;;;23.45;;
71814;SDS011;59659;41.520;23.794;2024-01-16T00:05:22;43.83;;;22.73;;
71814;SDS011;59659;41.520;23.794;2024-01-16T00:06:34;40.53;;;21.50;;
71814;SDS011;59659;41.520;23.794;2024-01-16T00:07:49;46.83;;;21.02;;
71814;SDS011;59659;41.520;23.794;2024-01-16T00:09:01;41.55;;;21.58;;
71814;SDS011;59659;41.520;23.794;2024-01-16T00:10:13;39.55;;;19.83;;
71814;SDS011;59659;41.520;23.794;2024-01-16T00:11:24;51.08;;;21.65;;
71814;SDS011;59659;41.520;23.794;2024-01-16T00:12:36;43.40;;;20.58;;
71814;SDS011;59659;41.520;23.794;2024-01-16T00:13:47;34.05;;;18.15;;
71814;SDS011;59659;41.520;23.794;2024-01-16T00:15:00;42.50;;;17.85;;
71814;SDS011;59659;41.520;23.794;2024-01-16T00:16:11;44.17;;;20.58;;
71814;SDS011;59659;41.520;23.794;2024-01-16T00:17:23;47.90;;;22.00;;
71814;SDS011;59659;41.520;23.794;2024-01-16T00:18:34;38.10;;;19.75;;
71814;SDS011;59659;41.520;23.794;2024-01-16T00:19:46;49.15;;;21.10;;
71814;SDS011;59659;41.520;23.794;2024-01-16T00:20:59;48.25;;;23.55;;
71814;SDS011;59659;41.520;23.794;2024-01-16T00:22:11;35.65;;;20.27;;
71814;SDS011;59659;41.520;23.794;2024-01-16T00:23:22;47.50;;;21.52;;
71814;SDS011;59659;41.520;23.794;2024-01-16T00:24:34;41.63;;;21.77;;
71814;SDS011;59659;41.520;23.794;2024-01-16T00:25:46;43.10;;;23.52;;
71814;SDS011;59659;41.520;23.794;2024-01-16T00:26:57;43.90;;;23.13;;
71814;SDS011;59659;41.520;23.794;2024-01-16T00:28:09;62.70;;;30.73;;
71814;SDS011;59659;41.520;23.794;2024-01-16T00:29:20;55.80;;;24.70;;
71814;SDS011;59659;41.520;23.794;2024-01-16T00:30:32;48.33;;;22.58;;
71814;SDS011;59659;41.520;23.794;2024-01-16T00:31:44;41.83;;;21.52;;
71814;SDS011;59659;41.520;23.794;2024-01-16T00:32:56;40.33;;;20.42;;
71814;SDS011;59659;41.520;23.794;2024-01-16T00:34:08;44.67;;;21.75;;
71814;SDS011;59659;41.520;23.794;2024-01-16T00:35:19;45.88;;;22.38;;
71814;SDS011;59659;41.520;23.794;2024-01-16T00:36:31;37.15;;;17.52;;
71814;SDS011;59659;41.520;23.794;2024-01-16T00:37:42;33.28;;;17.65;;
71814;SDS011;59659;41.520;23.794;2024-01-16T00:38:54;37.58;;;17.98;;
71814;SDS011;59659;41.520;23.794;2024-01-16T00:40:06;36.75;;;17.15;;
71814;SDS011;59659;41.520;23.794;2024-01-16T00:41:20;30.80;;;17.83;;
71814;SDS011;59659;41.520;23.794;2024-01-16T00:42:31;34.92;;;18.85;;
71814;SDS011;59659;41.520;23.794;2024-01-16T00:43:43;35.42;;;17.30;;
71814;SDS011;59659;41.520;23.794;2024-01-16T00:44:54;44.53;;;20.17;;
71814;SDS011;59659;41.520;23.794;2024-01-16T00:46:06;41.42;;;19.52;;
71814;SDS011;59659;41.520;23.794;2024-01-16T00:47:18;45.65;;;19.98;;
71814;SDS011;59659;41.520;23.794;2024-01-16T00:48:30;36.97;;;19.95;;
71814;SDS011;59659;41.520;23.794;2024-01-16T00:49:41;35.88;;;19.80;;
71814;SDS011;59659;41.520;23.794;2024-01-16T00:50:54;40.38;;;19.45;;
71814;SDS011;59659;41.520;23.794;2024-01-16T00:52:05;48.90;;;20.63;;
71814;SDS011;59659;41.520;23.794;2024-01-16T00:53:18;39.65;;;19.67;;
71814;SDS011;59659;41.520;23.794;2024-01-16T00:54:29;38.38;;;19.20;;
71814;SDS011;59659;41.520;23.794;2024-01-16T00:55:41;36.72;;;18.38;;
71814;SDS011;59659;41.520;23.794;2024-01-16T00:56:52;40.97;;;20.38;;
71814;SDS011;59659;41.520;23.794;2024-01-16T00:58:06;35.30;;;17.05;;
71814;SDS011;59659;41.520;23.794;2024-01-16T00:59:18;45.42;;;20.30;;
71814;SDS011;59659;41.520;23.794;2024-01-16T01:00:29;76.45;;;35.33;;
71814;SDS011;59659;41.520;23.794;2024-01-16T01:01:42;55.67;;;27.15;;
71814;SDS011;59659;41.520;23.794;2024-01-16T01:02:54;49.95;;;24.67;;
71814;SDS011;59659;41.520;23.794;2024-01-16T01:04:05;54.28;;;22.00;;
71814;SDS011;59659;41.520;23.794;2024-01-16T01:05:17;49.33;;;19.75;;
71814;SDS011;59659;41.520;23.794;2024-01-16T01:06:28;42.60;;;22.02;;
71814;SDS011;59659;41.520;23.794;2024-01-16T01:07:40;46.60;;;22.10;;
71814;SDS011;59659;41.520;23.794;2024-01-16T01:08:52;41.78;;;22.27;;
71814;SDS011;59659;41.520;23.794;2024-01-16T01:10:03;43.20;;;21.98;;
71814;SDS011;59659;41.520;23.794;2024-01-16T01:11:15;43.35;;;23.67;;
71814;SDS011;59659;41.520;23.794;2024-01-16T01:12:27;54.60;;;24.30;;
71814;SDS011;59659;41.520;23.794;2024-01-16T01:13:38;62.63;;;28.05;;
71814;SDS011;59659;41.520;23.794;2024-01-16T01:14:50;57.95;;;28.40;;
71814;SDS011;59659;41.520;23.794;2024-01-16T01:16:01;59.92;;;28.05;;
71814;SDS011;59659;41.520;23.794;2024-01-16T01:17:13;50.70;;;24.00;;
71814;SDS011;59659;41.520;23.794;2024-01-16T01:18:25;41.85;;;22.80;;
71814;SDS011;59659;41.520;23.794;2024-01-16T01:19:37;53.50;;;22.95;;
71814;SDS011;59659;41.520;23.794;2024-01-16T01:20:48;42.90;;;21.10;;
71814;SDS011;59659;41.520;23.794;2024-01-16T01:22:00;54.75;;;24.15;;
71814;SDS011;59659;41.520;23.794;2024-01-16T01:23:11;46.20;;;21.20;;
71814;SDS011;59659;41.520;23.794;2024-01-16T01:24:23;35.38;;;18.40;;
71814;SDS011;59659;41.520;23.794;2024-01-16T01:25:34;39.53;;;20.30;;
71814;SDS011;59659;41.520;23.794;2024-01-16T01:26:46;36.10;;;18.25;;
71814;SDS011;59659;41.520;23.794;2024-01-16T01:27:58;47.88;;;22.40;;
71814;SDS011;59659;41.520;23.794;2024-01-16T01:29:09;49.08;;;23.23;;
71814;SDS011;59659;41.520;23.794;2024-01-16T01:30:21;37.40;;;19.77;;
71814;SDS011;59659;41.520;23.794;2024-01-16T01:31:33;44.30;;;21.05;;
71814;SDS011;59659;41.520;23.794;2024-01-16T01:32:44;39.70;;;21.42;;
71814;SDS011;59659;41.520;23.794;2024-01-16T01:33:56;56.42;;;23.77;;
71814;SDS011;59659;41.520;23.794;2024-01-16T01:35:08;53.15;;;23.60;;
71814;SDS011;59659;41.520;23.794;2024-01-16T01:36:19;38.65;;;22.13;;
71814;SDS011;59659;41.520;23.794;2024-01-16T01:37:31;46.13;;;21.05;;
71814;SDS011;59659;41.520;23.794;2024-01-16T01:38:43;47.33;;;21.95;;
71814;SDS011;59659;41.520;23.794;2024-01-16T01:39:54;49.95;;;23.13;;
71814;SDS011;59659;41.520;23.794;2024-01-16T01:41:06;45.60;;;22.20;;
71814;SDS011;59659;41.520;23.794;2024-01-16T01:42:19;43.60;;;21.08;;
71814;SDS011;59659;41.520;23.794;2024-01-16T01:43:30;47.60;;;20.52;;
71814;SDS011;59659;41.520;23.794;2024-01-16T01:44:42;45.90;;;24.27;;
71814;SDS011;59659;41.520;23.794;2024-01-16T01:47:05;42.65;;;21.25;;
71814;SDS011;59659;41.520;23.794;2024-01-16T01:48:17;45.97;;;22.13;;
71814;SDS011;59659;41.520;23.794;2024-01-16T01:49:30;45.42;;;21.25;;
71814;SDS011;59659;41.520;23.794;2024-01-16T01:50:41;36.72;;;20.33;;
71814;SDS011;59659;41.520;23.794;2024-01-16T01:51:54;43.85;;;20.27;;
71814;SDS011;59659;41.520;23.794;2024-01-16T01:53:05;36.38;;;19.92;;
71814;SDS011;59659;41.520;23.794;2024-01-16T01:54:17;50.40;;;20.27;;
71814;SDS011;59659;41.520;23.794;2024-01-16T01:55:30;38.30;;;20.10;;
71814;SDS011;59659;41.520;23.794;2024-01-16T01:56:45;36.42;;;18.60;;
71814;SDS011;59659;41.520;23.794;2024-01-16T01:57:57;35.15;;;19.00;;
71814;SDS011;59659;41.520;23.794;2024-01-16T01:59:08;35.42;;;17.42;;
71814;SDS011;59659;41.520;23.794;2024-01-16T02:00:20;30.27;;;17.60;;
71814;SDS011;59659;41.520;23.794;2024-01-16T02:01:32;35.83;;;16.05;;
71814;SDS011;59659;41.520;23.794;2024-01-16T02:02:45;35.30;;;17.73;;
71814;SDS011;59659;41.520;23.794;2024-01-16T02:03:57;43.47;;;19.40;;
71814;SDS011;59659;41.520;23.794;2024-01-16T02:05:09;36.03;;;16.42;;
71814;SDS011;59659;41.520;23.794;2024-01-16T02:06:21;40.25;;;19.38;;
71814;SDS011;59659;41.520;23.794;2024-01-16T02:07:33;41.75;;;19.90;;
71814;SDS011;59659;41.520;23.794;2024-01-16T02:08:44;49.22;;;21.70;;
71814;SDS011;59659;41.520;23.794;2024-01-16T02:09:56;36.30;;;19.15;;
71814;SDS011;59659;41.520;23.794;2024-01-16T02:11:08;37.75;;;19.80;;
71814;SDS011;59659;41.520;23.794;2024-01-16T02:12:21;41.17;;;20.10;;
71814;SDS011;59659;41.520;23.794;2024-01-16T02:13:36;44.78;;;19.85;;
71814;SDS011;59659;41.520;23.794;2024-01-16T02:14:48;40.75;;;19.60;;
71814;SDS011;59659;41.520;23.794;2024-01-16T02:16:00;44.47;;;20.73;;
71814;SDS011;59659;41.520;23.794;2024-01-16T02:17:12;47.38;;;19.88;;
71814;SDS011;59659;41.520;23.794;2024-01-16T02:18:23;39.63;;;21.00;;
71814;SDS011;59659;41.520;23.794;2024-01-16T02:19:35;35.72;;;19.35;;
71814;SDS011;59659;41.520;23.794;2024-01-16T02:20:47;43.30;;;22.05;;
71814;SDS011;59659;41.520;23.794;2024-01-16T02:21:59;38.63;;;20.08;;
71814;SDS011;59659;41.520;23.794;2024-01-16T02:23:12;37.20;;;20.75;;
71814;SDS011;59659;41.520;23.794;2024-01-16T02:24:24;36.38;;;18.58;;
71814;SDS011;59659;41.520;23.794;2024-01-16T02:25:36;43.70;;;19.65;;
71814;SDS011;59659;41.520;23.794;2024-01-16T02:26:47;43.75;;;18.83;;
71814;SDS011;59659;41.520;23.794;2024-01-16T02:27:59;34.03;;;18.70;;
71814;SDS011;59659;41.520;23.794;2024-01-16T02:29:11;33.75;;;18.08;;
71814;SDS011;59659;41.520;23.794;2024-01-16T02:30:23;37.97;;;19.77;;
71814;SDS011;59659;41.520;23.794;2024-01-16T02:31:35;39.55;;;19.25;;
71814;SDS011;59659;41.520;23.794;2024-01-16T02:32:46;40.95;;;21.60;;
71814;SDS011;59659;41.520;23.794;2024-01-16T02:33:58;37.35;;;19.33;;
71814;SDS011;59659;41.520;23.794;2024-01-16T02:35:10;42.67;;;18.95;;
71814;SDS011;59659;41.520;23.794;2024-01-16T02:36:21;42.08;;;20.02;;
71814;SDS011;59659;41.520;23.794;2024-01-16T02:37:33;36.85;;;19.25;;
71814;SDS011;59659;41.520;23.794;2024-01-16T02:38:44;31.13;;;18.80;;
71814;SDS011;59659;41.520;23.794;2024-01-16T02:39:57;39.03;;;19.05;;
71814;SDS011;59659;41.520;23.794;2024-01-16T02:41:09;43.83;;;20.02;;
71814;SDS011;59659;41.520;23.794;2024-01-16T02:42:21;45.22;;;18.35;;
71814;SDS011;59659;41.520;23.794;2024-01-16T02:43:32;35.95;;;17.88;;
71814;SDS011;59659;41.520;23.794;2024-01-16T02:44:44;42.33;;;20.40;;
71814;SDS011;59659;41.520;23.794;2024-01-16T02:45:56;37.95;;;20.00;;
71814;SDS011;59659;41.520;23.794;2024-01-16T02:47:07;45.63;;;20.20;;
71814;SDS011;59659;41.520;23.794;2024-01-16T02:48:19;44.78;;;21.38;;
71814;SDS011;59659;41.520;23.794;2024-01-16T02:49:30;45.88;;;21.83;;
71814;SDS011;59659;41.520;23.794;2024-01-16T02:50:44;46.78;;;20.50;;
71814;SDS011;59659;41.520;23.794;2024-01-16T02:51:56;45.45;;;22.02;;
71814;SDS011;59659;41.520;23.794;2024-01-16T02:53:07;49.72;;;22.58;;
71814;SDS011;59659;41.520;23.794;2024-01-16T02:54:19;47.83;;;21.50;;
71814;SDS011;59659;41.520;23.794;2024-01-16T02:55:31;51.95;;;24.17;;
71814;SDS011;59659;41.520;23.794;2024-01-16T02:56:42;40.63;;;21.83;;
71814;SDS011;59659;41.520;23.794;2024-01-16T02:57:54;51.35;;;20.17;;
71814;SDS011;59659;41.520;23.794;2024-01-16T02:59:06;42.55;;;22.73;;
71814;SDS011;59659;41.520;23.794;2024-01-16T03:00:17;54.33;;;24.23;;
71814;SDS011;59659;41.520;23.794;2024-01-16T03:01:29;33.50;;;17.55;;
71814;SDS011;59659;41.520;23.794;2024-01-16T03:02:41;39.88;;;20.63;;
71814;SDS011;59659;41.520;23.794;2024-01-16T03:03:52;43.72;;;19.88;;
71814;SDS011;59659;41.520;23.794;2024-01-16T03:05:04;36.85;;;19.40;;
71814;SDS011;59659;41.520;23.794;2024-01-16T03:06:22;36.28;;;19.00;;
71814;SDS011;59659;41.520;23.794;2024-01-16T03:07:34;36.58;;;17.92;;
71814;SDS011;59659;41.520;23.794;2024-01-16T03:08:46;35.08;;;18.95;;
71814;SDS011;59659;41.520;23.794;2024-01-16T03:09:58;42.53;;;20.35;;
71814;SDS011;59659;41.520;23.794;2024-01-16T03:11:09;55.83;;;22.08;;
71814;SDS011;59659;41.520;23.794;2024-01-16T03:12:21;34.38;;;18.30;;
71814;SDS011;59659;41.520;23.794;2024-01-16T03:13:32;36.20;;;18.60;;
71814;SDS011;59659;41.520;23.794;2024-01-16T03:14:44;40.03;;;20.38;;
71814;SDS011;59659;41.520;23.794;2024-01-16T03:15:56;41.35;;;20.05;;
71814;SDS011;59659;41.520;23.794;2024-01-16T03:17:07;36.33;;;18.08;;
71814;SDS011;59659;41.520;23.794;2024-01-16T03:18:19;48.33;;;20.80;;
71814;SDS011;59659;41.520;23.794;2024-01-16T03:19:31;32.00;;;17.65;;
71814;SDS011;59659;41.520;23.794;2024-01-16T03:20:43;41.17;;;20.83;;
71814;SDS011;59659;41.520;23.794;2024-01-16T03:21:54;46.97;;;20.48;;
71814;SDS011;59659;41.520;23.794;2024-01-16T03:23:06;51.30;;;23.42;;
71814;SDS011;59659;41.520;23.794;2024-01-16T03:24:18;49.38;;;23.42;;
71814;SDS011;59659;41.520;23.794;2024-01-16T03:25:29;61.65;;;27.55;;
71814;SDS011;59659;41.520;23.794;2024-01-16T03:26:41;42.45;;;21.25;;
71814;SDS011;59659;41.520;23.794;2024-01-16T03:27:54;55.70;;;23.52;;
71814;SDS011;59659;41.520;23.794;2024-01-16T03:29:05;56.53;;;24.67;;
71814;SDS011;59659;41.520;23.794;2024-01-16T03:30:17;55.67;;;25.00;;
71814;SDS011;59659;41.520;23.794;2024-01-16T03:31:29;48.05;;;23.40;;
71814;SDS011;59659;41.520;23.794;2024-01-16T03:32:40;56.50;;;25.90;;
71814;SDS011;59659;41.520;23.794;2024-01-16T03:33:52;68.55;;;27.23;;
71814;SDS011;59659;41.520;23.794;2024-01-16T03:35:04;52.17;;;25.90;;
71814;SDS011;59659;41.520;23.794;2024-01-16T03:36:16;71.28;;;28.52;;
71814;SDS011;59659;41.520;23.794;2024-01-16T03:37:28;69.05;;;28.75;;
71814;SDS011;59659;41.520;23.794;2024-01-16T03:38:39;77.03;;;31.23;;
71814;SDS011;59659;41.520;23.794;2024-01-16T03:39:51;61.38;;;28.65;;
71814;SDS011;59659;41.520;23.794;2024-01-16T03:41:03;57.30;;;28.55;;
71814;SDS011;59659;41.520;23.794;2024-01-16T03:42:15;71.43;;;29.92;;
71814;SDS011;59659;41.520;23.794;2024-01-16T03:43:26;58.63;;;28.73;;
71814;SDS011;59659;41.520;23.794;2024-01-16T03:44:41;66.80;;;27.95;;
71814;SDS011;59659;41.520;23.794;2024-01-16T03:45:53;79.43;;;32.10;;
71814;SDS011;59659;41.520;23.794;2024-01-16T03:47:04;89.53;;;33.97;;
71814;SDS011;59659;41.520;23.794;2024-01-16T03:48:16;57.72;;;25.10;;
71814;SDS011;59659;41.520;23.794;2024-01-16T03:49:27;53.63;;;25.70;;
71814;SDS011;59659;41.520;23.794;2024-01-16T03:50:39;61.35;;;25.83;;
71814;SDS011;59659;41.520;23.794;2024-01-16T03:51:55;59.40;;;25.60;;
71814;SDS011;59659;41.520;23.794;2024-01-16T03:53:06;64.32;;;29.17;;
71814;SDS011;59659;41.520;23.794;2024-01-16T03:54:18;61.50;;;28.58;;
71814;SDS011;59659;41.520;23.794;2024-01-16T03:55:30;76.82;;;31.65;;
71814;SDS011;59659;41.520;23.794;2024-01-16T03:56:42;69.85;;;32.17;;
71814;SDS011;59659;41.520;23.794;2024-01-16T03:57:54;64.40;;;26.33;;
71814;SDS011;59659;41.520;23.794;2024-01-16T03:59:06;58.25;;;24.33;;
71814;SDS011;59659;41.520;23.794;2024-01-16T04:00:17;47.35;;;21.65;;
71814;SDS011;59659;41.520;23.794;2024-01-16T04:01:29;45.83;;;20.55;;
71814;SDS011;59659;41.520;23.794;2024-01-16T04:02:41;40.10;;;21.38;;
71814;SDS011;59659;41.520;23.794;2024-01-16T04:03:53;52.15;;;23.38;;
71814;SDS011;59659;41.520;23.794;2024-01-16T04:05:04;45.80;;;22.90;;
71814;SDS011;59659;41.520;23.794;2024-01-16T04:06:17;59.28;;;26.02;;
71814;SDS011;59659;41.520;23.794;2024-01-16T04:07:29;37.15;;;21.20;;
71814;SDS011;59659;41.520;23.794;2024-01-16T04:08:41;48.22;;;25.05;;
71814;SDS011;59659;41.520;23.794;2024-01-16T04:09:52;46.35;;;21.08;;
71814;SDS011;59659;41.520;23.794;2024-01-16T04:11:04;45.85;;;22.60;;
71814;SDS011;59659;41.520;23.794;2024-01-16T04:12:16;49.58;;;21.77;;
71814;SDS011;59659;41.520;23.794;2024-01-16T04:13:27;51.53;;;25.25;;
71814;SDS011;59659;41.520;23.794;2024-01-16T04:14:39;49.78;;;22.98;;
71814;SDS011;59659;41.520;23.794;2024-01-16T04:15:51;48.90;;;23.88;;
71814;SDS011;59659;41.520;23.794;2024-01-16T04:17:03;47.90;;;23.95;;
71814;SDS011;59659;41.520;23.794;2024-01-16T04:18:15;65.35;;;28.20;;
71814;SDS011;59659;41.520;23.794;2024-01-16T04:19:27;85.30;;;33.72;;
71814;SDS011;59659;41.520;23.794;2024-01-16T04:20:38;73.07;;;32.67;;
71814;SDS011;59659;41.520;23.794;2024-01-16T04:21:50;53.50;;;27.33;;
71814;SDS011;59659;41.520;23.794;2024-01-16T04:23:02;59.35;;;27.85;;
71814;SDS011;59659;41.520;23.794;2024-01-16T04:24:14;85.13;;;33.63;;
71814;SDS011;59659;41.520;23.794;2024-01-16T04:25:25;73.10;;;33.53;;
71814;SDS011;59659;41.520;23.794;2024-01-16T04:26:37;61.42;;;28.92;;
71814;SDS011;59659;41.520;23.794;2024-01-16T04:27:49;67.90;;;31.73;;
71814;SDS011;59659;41.520;23.794;2024-01-16T04:29:01;62.85;;;28.60;;
71814;SDS011;59659;41.520;23.794;2024-01-16T04:30:13;63.40;;;30.73;;
71814;SDS011;59659;41.520;23.794;2024-01-16T04:31:25;60.65;;;29.50;;
71814;SDS011;59659;41.520;23.794;2024-01-16T04:32:36;72.53;;;32.75;;
71814;SDS011;59659;41.520;23.794;2024-01-16T04:33:48;58.63;;;28.38;;
71814;SDS011;59659;41.520;23.794;2024-01-16T04:35:00;54.30;;;27.27;;
71814;SDS011;59659;41.520;23.794;2024-01-16T04:36:11;56.50;;;27.38;;
71814;SDS011;59659;41.520;23.794;2024-01-16T04:37:23;56.97;;;28.98;;
71814;SDS011;59659;41.520;23.794;2024-01-16T04:38:35;65.90;;;30.08;;
71814;SDS011;59659;41.520;23.794;2024-01-16T04:39:47;62.53;;;31.08;;
71814;SDS011;59659;41.520;23.794;2024-01-16T04:41:01;64.95;;;27.67;;
71814;SDS011;59659;41.520;23.794;2024-01-16T04:42:12;62.20;;;28.55;;
71814;SDS011;59659;41.520;23.794;2024-01-16T04:43:24;61.10;;;27.23;;
71814;SDS011;59659;41.520;23.794;2024-01-16T04:44:35;69.60;;;31.13;;
71814;SDS011;59659;41.520;23.794;2024-01-16T04:45:47;60.17;;;26.65;;
71814;SDS011;59659;41.520;23.794;2024-01-16T04:46:58;59.15;;;28.70;;
71814;SDS011;59659;41.520;23.794;2024-01-16T04:48:10;58.20;;;26.65;;
71814;SDS011;59659;41.520;23.794;2024-01-16T04:49:22;45.60;;;22.52;;
71814;SDS011;59659;41.520;23.794;2024-01-16T04:50:33;59.17;;;29.75;;
71814;SDS011;59659;41.520;23.794;2024-01-16T04:51:45;52.38;;;25.08;;
71814;SDS011;59659;41.520;23.794;2024-01-16T04:52:59;59.67;;;26.92;;
71814;SDS011;59659;41.520;23.794;2024-01-16T04:54:11;51.15;;;27.08;;
71814;SDS011;59659;41.520;23.794;2024-01-16T04:55:23;54.47;;;25.20;;
71814;SDS011;59659;41.520;23.794;2024-01-16T04:56:35;50.75;;;23.67;;
71814;SDS011;59659;41.520;23.794;2024-01-16T04:57:47;52.72;;;24.65;;
71814;SDS011;59659;41.520;23.794;2024-01-16T04:58:59;86.63;;;35.38;;
71814;SDS011;59659;41.520;23.794;2024-01-16T05:00:11;192.88;;;71.35;;
71814;SDS011;59659;41.520;23.794;2024-01-16T05:01:22;197.48;;;72.78;;
71814;SDS011;59659;41.520;23.794;2024-01-16T05:02:34;157.50;;;61.97;;
71814;SDS011;59659;41.520;23.794;2024-01-16T05:03:46;140.52;;;53.75;;
71814;SDS011;59659;41.520;23.794;2024-01-16T05:04:57;115.18;;;49.20;;
71814;SDS011;59659;41.520;23.794;2024-01-16T05:06:13;135.10;;;57.65;;
71814;SDS011;59659;41.520;23.794;2024-01-16T05:07:28;134.60;;;55.15;;
71814;SDS011;59659;41.520;23.794;2024-01-16T05:08:40;128.85;;;51.80;;
71814;SDS011;59659;41.520;23.794;2024-01-16T05:09:51;135.73;;;54.40;;
71814;SDS011;59659;41.520;23.794;2024-01-16T05:11:03;126.63;;;48.45;;
71814;SDS011;59659;41.520;23.794;2024-01-16T05:12:15;136.02;;;52.25;;
71814;SDS011;59659;41.520;23.794;2024-01-16T05:13:26;126.40;;;50.47;;
71814;SDS011;59659;41.520;23.794;2024-01-16T05:14:38;83.28;;;34.75;;
71814;SDS011;59659;41.520;23.794;2024-01-16T05:15:49;74.32;;;31.23;;
71814;SDS011;59659;41.520;23.794;2024-01-16T05:17:01;76.15;;;32.45;;
71814;SDS011;59659;41.520;23.794;2024-01-16T05:18:12;83.63;;;35.22;;
71814;SDS011;59659;41.520;23.794;2024-01-16T05:19:24;77.63;;;35.78;;
71814;SDS011;59659;41.520;23.794;2024-01-16T05:20:36;75.65;;;31.20;;
71814;SDS011;59659;41.520;23.794;2024-01-16T05:21:48;72.18;;;35.85;;
71814;SDS011;59659;41.520;23.794;2024-01-16T05:23:00;75.65;;;34.92;;
71814;SDS011;59659;41.520;23.794;2024-01-16T05:24:11;79.53;;;34.20;;
71814;SDS011;59659;41.520;23.794;2024-01-16T05:25:23;69.50;;;34.10;;
71814;SDS011;59659;41.520;23.794;2024-01-16T05:26:34;60.08;;;27.92;;
71814;SDS011;59659;41.520;23.794;2024-01-16T05:27:46;66.22;;;32.35;;
71814;SDS011;59659;41.520;23.794;2024-01-16T05:28:58;77.55;;;32.33;;
71814;SDS011;59659;41.520;23.794;2024-01-16T05:30:10;78.45;;;34.00;;
71814;SDS011;59659;41.520;23.794;2024-01-16T05:31:22;77.25;;;33.42;;
71814;SDS011;59659;41.520;23.794;2024-01-16T05:32:33;69.05;;;30.40;;
71814;SDS011;59659;41.520;23.794;2024-01-16T05:33:45;73.72;;;32.47;;
71814;SDS011;59659;41.520;23.794;2024-01-16T05:34:57;71.20;;;32.80;;
71814;SDS011;59659;41.520;23.794;2024-01-16T05:36:09;83.90;;;33.05;;
71814;SDS011;59659;41.520;23.794;2024-01-16T05:37:20;80.40;;;36.53;;
71814;SDS011;59659;41.520;23.794;2024-01-16T05:38:32;105.18;;;45.53;;
71814;SDS011;59659;41.520;23.794;2024-01-16T05:39:45;162.50;;;66.78;;
71814;SDS011;59659;41.520;23.794;2024-01-16T05:40:56;145.60;;;61.00;;
71814;SDS011;59659;41.520;23.794;2024-01-16T05:42:08;153.45;;;59.20;;
71814;SDS011;59659;41.520;23.794;2024-01-16T05:43:19;113.32;;;43.88;;
71814;SDS011;59659;41.520;23.794;2024-01-16T05:44:31;103.72;;;41.85;;
71814;SDS011;59659;41.520;23.794;2024-01-16T05:45:43;94.45;;;37.17;;
71814;SDS011;59659;41.520;23.794;2024-01-16T05:46:54;71.60;;;32.60;;
71814;SDS011;59659;41.520;23.794;2024-01-16T05:48:06;72.78;;;32.17;;
71814;SDS011;59659;41.520;23.794;2024-01-16T05:49:19;64.00;;;27.35;;
71814;SDS011;59659;41.520;23.794;2024-01-16T05:50:31;70.25;;;28.17;;
71814;SDS011;59659;41.520;23.794;2024-01-16T05:51:43;69.90;;;30.45;;
71814;SDS011;59659;41.520;23.794;2024-01-16T05:52:54;69.25;;;29.08;;
71814;SDS011;59659;41.520;23.794;2024-01-16T05:54:06;53.38;;;25.88;;
71814;SDS011;59659;41.520;23.794;2024-01-16T05:55:17;60.63;;;26.60;;
71814;SDS011;59659;41.520;23.794;2024-01-16T05:56:30;59.67;;;28.30;;
71814;SDS011;59659;41.520;23.794;2024-01-16T05:57:42;54.72;;;27.98;;
71814;SDS011;59659;41.520;23.794;2024-01-16T05:58:54;75.45;;;32.67;;
71814;SDS011;59659;41.520;23.794;2024-01-16T06:00:06;65.38;;;29.83;;
71814;SDS011;59659;41.520;23.794;2024-01-16T06:01:18;58.65;;;29.08;;
71814;SDS011;59659;41.520;23.794;2024-01-16T06:02:29;63.25;;;31.77;;
71814;SDS011;59659;41.520;23.794;2024-01-16T06:03:41;71.93;;;31.33;;
71814;SDS011;59659;41.520;23.794;2024-01-16T06:04:53;68.35;;;32.47;;
71814;SDS011;59659;41.520;23.794;2024-01-16T06:06:05;70.28;;;28.88;;
71814;SDS011;59659;41.520;23.794;2024-01-16T06:07:16;62.92;;;27.50;;
71814;SDS011;59659;41.520;23.794;2024-01-16T06:08:28;91.90;;;33.42;;
71814;SDS011;59659;41.520;23.794;2024-01-16T06:09:41;80.18;;;33.85;;
71814;SDS011;59659;41.520;23.794;2024-01-16T06:10:53;88.10;;;35.15;;
71814;SDS011;59659;41.520;23.794;2024-01-16T06:12:05;80.85;;;32.58;;
71814;SDS011;59659;41.520;23.794;2024-01-16T06:13:19;61.70;;;24.92;;
71814;SDS011;59659;41.520;23.794;2024-01-16T06:14:31;58.92;;;26.23;;
71814;SDS011;59659;41.520;23.794;2024-01-16T06:15:42;59.90;;;28.65;;
71814;SDS011;59659;41.520;23.794;2024-01-16T06:16:54;76.70;;;31.00;;
71814;SDS011;59659;41.520;23.794;2024-01-16T06:18:06;70.22;;;30.35;;
71814;SDS011;59659;41.520;23.794;2024-01-16T06:19:18;73.00;;;32.13;;
71814;SDS011;59659;41.520;23.794;2024-01-16T06:20:32;86.10;;;33.78;;
71814;SDS011;59659;41.520;23.794;2024-01-16T06:21:45;66.88;;;31.13;;
71814;SDS011;59659;41.520;23.794;2024-01-16T06:22:56;64.40;;;30.17;;
71814;SDS011;59659;41.520;23.794;2024-01-16T06:24:08;76.38;;;31.67;;
71814;SDS011;59659;41.520;23.794;2024-01-16T06:25:19;58.72;;;26.55;;
71814;SDS011;59659;41.520;23.794;2024-01-16T06:26:31;60.15;;;27.63;;
71814;SDS011;59659;41.520;23.794;2024-01-16T06:27:43;64.38;;;29.75;;
71814;SDS011;59659;41.520;23.794;2024-01-16T06:28:54;66.32;;;27.88;;
71814;SDS011;59659;41.520;23.794;2024-01-16T06:30:06;85.22;;;32.75;;
71814;SDS011;59659;41.520;23.794;2024-01-16T06:31:20;64.68;;;28.52;;
71814;SDS011;59659;41.520;23.794;2024-01-16T06:32:31;61.42;;;29.85;;
71814;SDS011;59659;41.520;23.794;2024-01-16T06:33:43;59.97;;;28.50;;
71814;SDS011;59659;41.520;23.794;2024-01-16T06:34:55;63.13;;;29.48;;
71814;SDS011;59659;41.520;23.794;2024-01-16T06:36:07;61.90;;;31.85;;
71814;SDS011;59659;41.520;23.794;2024-01-16T06:37:18;59.55;;;29.25;;
71814;SDS011;59659;41.520;23.794;2024-01-16T06:38:30;59.72;;;31.75;;
71814;SDS011;59659;41.520;23.794;2024-01-16T06:39:42;68.68;;;33.70;;
71814;SDS011;59659;41.520;23.794;2024-01-16T06:40:53;69.25;;;33.78;;
71814;SDS011;59659;41.520;23.794;2024-01-16T06:42:05;70.53;;;32.38;;
71814;SDS011;59659;41.520;23.794;2024-01-16T06:43:21;64.80;;;31.73;;
71814;SDS011;59659;41.520;23.794;2024-01-16T06:44:33;62.30;;;31.92;;
71814;SDS011;59659;41.520;23.794;2024-01-16T06:45:44;64.03;;;28.38;;
71814;SDS011;59659;41.520;23.794;2024-01-16T06:46:56;62.20;;;31.65;;
71814;SDS011;59659;41.520;23.794;2024-01-16T06:48:07;57.65;;;30.98;;
71814;SDS011;59659;41.520;23.794;2024-01-16T06:49:19;63.40;;;32.15;;
71814;SDS011;59659;41.520;23.794;2024-01-16T06:50:31;80.18;;;36.83;;
71814;SDS011;59659;41.520;23.794;2024-01-16T06:51:42;58.50;;;29.50;;
71814;SDS011;59659;41.520;23.794;2024-01-16T06:52:54;57.72;;;29.70;;
71814;SDS011;59659;41.520;23.794;2024-01-16T06:54:05;68.20;;;34.60;;
71814;SDS011;59659;41.520;23.794;2024-01-16T06:55:17;74.22;;;34.78;;